createdAt,value
2018-07-30T05:05:43.356Z,23.77
2018-07-30T05:06:45.972Z,24.08
2018-07-30T05:07:48.520Z,24.20
2018-07-30T05:08:51.082Z,24.30
2018-07-30T05:09:53.613Z,24.43
2018-07-30T05:10:56.535Z,24.47
2018-07-30T05:11:59.099Z,24.47
2018-07-30T05:13:01.646Z,24.51
2018-07-30T05:14:04.220Z,24.57
2018-07-30T05:15:06.760Z,24.64
2018-07-30T05:16:09.336Z,24.67
2018-07-30T05:17:12.388Z,24.72
2018-07-30T05:18:14.941Z,24.82
2018-07-30T05:19:17.516Z,24.83
2018-07-30T05:20:20.068Z,24.72
2018-07-30T05:22:30.593Z,24.68
2018-07-30T05:24:47.595Z,24.73
2018-07-30T05:25:50.326Z,24.67
2018-07-30T05:26:53.025Z,24.55
2018-07-30T05:27:55.709Z,24.48
2018-07-30T05:28:59.852Z,24.44
2018-07-30T05:31:10.438Z,24.27
2018-07-30T05:32:12.981Z,24.24
2018-07-30T05:33:15.518Z,24.25
2018-07-30T05:34:18.130Z,24.24
2018-07-30T05:35:20.710Z,24.23
2018-07-30T05:36:23.735Z,24.21
2018-07-30T05:37:26.307Z,24.21
2018-07-30T05:38:28.842Z,24.19
2018-07-30T05:39:31.404Z,24.22
2018-07-30T05:40:33.939Z,24.19
2018-07-30T05:41:36.487Z,24.20
2018-07-30T05:42:39.553Z,24.25
2018-07-30T05:43:42.095Z,24.36
2018-07-30T05:44:44.638Z,24.50
2018-07-30T05:45:47.178Z,24.56
2018-07-30T05:46:49.752Z,24.58
2018-07-30T05:47:52.298Z,24.53
2018-07-30T05:48:55.156Z,24.52
2018-07-30T05:49:57.749Z,24.53
2018-07-30T05:51:00.301Z,24.57
2018-07-30T07:10:06.646Z,24.62
2018-07-30T07:11:09.334Z,24.69
2018-07-30T07:12:11.865Z,24.79
2018-07-30T07:13:14.457Z,24.90
2018-07-30T07:14:17.010Z,25.01
2018-07-30T07:15:20.222Z,25.08
2018-07-30T07:16:23.000Z,25.14
2018-07-30T07:17:25.610Z,25.27
2018-07-30T07:18:28.196Z,25.37
2018-07-30T07:19:31.891Z,25.44
2018-07-30T07:20:34.707Z,25.51
2018-07-30T07:21:38.586Z,25.51
2018-07-30T07:22:42.247Z,25.51
2018-07-30T07:23:46.080Z,25.52
2018-07-30T07:24:48.657Z,25.48
2018-07-30T07:25:51.531Z,25.51
2018-07-30T07:26:54.136Z,25.53
2018-07-30T07:27:57.118Z,25.54
2018-07-30T07:29:00.320Z,25.61
2018-07-30T07:30:02.917Z,25.59
2018-07-30T07:31:05.493Z,25.61
2018-07-30T07:32:08.062Z,25.66
2018-07-30T07:33:10.606Z,25.65
2018-07-30T07:34:13.579Z,25.64
2018-07-30T07:35:16.930Z,25.68
2018-07-30T07:36:19.518Z,25.76
2018-07-30T07:37:22.043Z,25.79
2018-07-30T07:38:24.579Z,25.81
2018-07-30T07:39:27.967Z,25.84
2018-07-30T07:40:31.149Z,25.90
2018-07-30T07:41:33.697Z,25.92
2018-07-30T07:42:36.273Z,25.94
2018-07-30T07:43:39.431Z,25.95
2018-07-30T07:44:42.063Z,25.93
2018-07-30T07:45:44.681Z,25.94
2018-07-30T07:48:04.550Z,25.97
2018-07-30T07:49:08.774Z,25.95
2018-07-30T07:50:16.757Z,25.20
2018-07-30T07:51:20.389Z,25.96
2018-07-30T07:52:24.636Z,25.97
2018-07-30T07:53:28.502Z,25.98
2018-07-30T07:54:31.086Z,25.97
2018-07-30T07:55:34.299Z,25.87
2018-07-30T07:56:36.825Z,25.92
2018-07-30T07:57:39.876Z,25.94
2018-07-30T07:58:42.413Z,25.95
2018-07-30T07:59:45.431Z,25.99
2018-07-30T08:00:48.513Z,26.01
2018-07-30T08:01:52.707Z,26.02
2018-07-30T08:02:55.283Z,26.09
2018-07-30T08:03:59.101Z,26.09
2018-07-30T08:05:01.692Z,26.04
2018-07-30T08:06:04.782Z,26.01
2018-07-30T08:07:07.334Z,26.05
2018-07-30T08:08:11.489Z,26.02
2018-07-30T08:09:14.104Z,25.97
2018-07-30T08:10:16.665Z,25.97
2018-07-30T08:11:19.207Z,25.96
2018-07-30T08:12:22.735Z,25.94
2018-07-30T08:13:26.125Z,24.96
2018-07-30T08:14:31.659Z,25.92
2018-07-30T08:15:34.720Z,25.93
2018-07-30T08:16:37.365Z,25.93
2018-07-30T08:17:39.911Z,25.93
2018-07-30T09:26:13.288Z,25.61
2018-07-30T09:27:17.554Z,25.72
2018-07-30T09:28:20.269Z,25.86
2018-07-30T09:29:22.808Z,26.00
2018-07-30T09:30:25.353Z,26.10
2018-07-30T09:31:28.353Z,26.19
2018-07-30T09:32:30.918Z,26.25
2018-07-30T09:33:33.456Z,26.30
2018-07-30T09:53:35.349Z,25.84
2018-07-30T09:54:37.903Z,25.92
2018-07-30T09:55:40.529Z,26.04
2018-07-30T09:56:43.130Z,26.17
2018-07-30T09:57:45.988Z,26.25
2018-07-30T09:58:50.361Z,26.33
2018-07-30T09:59:53.001Z,26.39
2018-07-30T10:00:55.705Z,26.43
2018-07-30T10:01:58.285Z,26.45
2018-07-30T10:04:10.468Z,24.55
2018-07-30T10:15:37.223Z,25.99
2018-07-30T10:16:39.865Z,26.05
2018-07-30T10:17:42.470Z,26.17
2018-07-30T10:18:46.658Z,26.27
2018-07-30T10:19:49.261Z,24.74
2018-07-30T10:20:53.046Z,26.42
2018-07-30T10:21:55.626Z,25.57
2018-07-30T10:22:58.193Z,26.48
2018-07-30T10:24:00.810Z,26.47
2018-07-30T10:25:03.439Z,26.49
2018-07-30T10:26:06.127Z,26.50
2018-07-30T10:27:09.583Z,26.49
2018-07-30T10:28:12.144Z,26.50
2018-07-30T10:29:14.671Z,25.45
2018-07-30T10:30:17.227Z,26.46
2018-07-30T10:31:22.816Z,26.52
2018-07-30T10:32:25.381Z,26.61
2018-07-30T10:33:31.256Z,26.63
2018-07-30T10:34:33.853Z,26.67
2018-07-30T10:35:37.077Z,25.16
2018-07-30T10:36:39.634Z,26.69
2018-07-30T10:37:42.862Z,26.68
2018-07-30T10:38:45.455Z,26.69
2018-07-30T10:39:51.252Z,26.69
2018-07-30T10:40:54.497Z,25.37
2018-07-30T10:41:57.099Z,26.72
2018-07-30T10:43:00.286Z,26.71
2018-07-30T10:44:06.577Z,24.88
2018-07-30T10:45:09.984Z,26.74
2018-07-30T10:46:13.261Z,26.75
2018-07-30T10:47:15.949Z,26.75
2018-07-30T10:48:18.630Z,25.46
2018-07-30T10:49:21.283Z,26.78
2018-07-30T10:50:24.821Z,26.01
2018-07-30T10:51:27.384Z,26.79
2018-07-30T10:52:30.293Z,26.79
2018-07-30T10:53:33.482Z,26.79
2018-07-30T10:54:37.693Z,26.80
2018-07-30T10:55:40.810Z,26.81
2018-07-30T10:56:43.358Z,26.80
2018-07-30T10:57:46.519Z,26.79
2018-07-30T10:58:49.552Z,25.99
2018-07-30T11:01:00.418Z,26.79
2018-07-30T11:02:03.434Z,26.79
2018-07-30T11:03:05.990Z,26.82
2018-07-30T11:04:09.210Z,26.82
2018-07-30T11:05:12.135Z,26.83
2018-07-30T11:06:14.714Z,26.83
2018-07-30T11:07:18.423Z,26.84
2018-07-30T11:08:20.960Z,26.86
2018-07-30T11:09:26.775Z,26.84
2018-07-30T11:11:54.086Z,26.82
2018-07-30T11:12:58.245Z,26.84
2018-07-30T18:05:37.191Z,26.24
2018-07-30T18:06:40.895Z,26.40
2018-07-30T18:07:43.483Z,26.55
2018-07-30T18:08:46.189Z,26.71
2018-07-30T18:09:48.940Z,26.83
2018-07-30T18:10:54.791Z,26.91
2018-07-30T18:11:58.474Z,26.94
2018-07-30T18:13:01.633Z,26.97
2018-07-30T18:14:04.522Z,27.01
2018-07-30T18:15:07.069Z,27.04
2018-07-30T18:16:09.680Z,27.06
2018-07-30T18:17:13.375Z,27.08
2018-07-30T18:18:16.570Z,27.10
2018-07-30T18:19:19.285Z,27.08
2018-07-30T18:20:21.840Z,27.09
2018-07-30T18:21:24.394Z,27.07
2018-07-30T18:22:27.578Z,27.07
2018-07-30T18:23:30.431Z,27.07
2018-07-30T18:24:32.986Z,27.08
2018-07-30T18:25:35.543Z,27.07
2018-07-30T18:26:38.923Z,27.08
2018-07-30T18:27:41.453Z,26.08
2018-07-30T18:28:44.531Z,27.12
2018-07-30T18:29:48.438Z,27.12
2018-07-30T19:37:39.665Z,26.39
2018-07-30T19:38:42.363Z,26.25
2018-07-30T19:39:46.451Z,26.63
2018-07-30T19:40:49.864Z,26.78
2018-07-30T19:41:52.548Z,26.89
2018-07-30T19:42:55.586Z,26.98
2018-07-30T19:43:59.124Z,26.04
2018-07-30T19:45:01.693Z,27.11
2018-07-30T19:46:04.339Z,27.14
2018-07-30T19:47:07.414Z,27.16
2018-07-30T19:48:09.974Z,27.17
2018-07-30T19:49:13.233Z,27.19
2018-07-30T19:50:16.384Z,27.21
2018-07-30T19:51:19.832Z,27.21
2018-07-30T19:52:23.533Z,26.22
2018-07-30T19:53:26.192Z,27.22
2018-07-30T19:54:28.743Z,27.23
2018-07-30T19:55:31.726Z,27.23
2018-07-30T19:56:34.493Z,27.26
2018-07-30T19:57:37.998Z,27.30
2018-07-30T19:58:41.708Z,27.27
2018-07-30T19:59:44.339Z,27.27
2018-07-30T20:00:46.920Z,27.29
2018-07-30T20:01:50.857Z,27.29
2018-07-30T20:02:54.142Z,27.31
2018-07-30T20:03:58.670Z,27.31
2018-07-30T20:05:02.117Z,27.31
2018-07-30T20:06:04.666Z,27.32
2018-07-30T20:07:08.029Z,27.31
2018-07-30T20:08:11.172Z,27.30
2018-07-30T20:09:13.735Z,27.30
2018-07-30T20:10:17.958Z,27.29
2018-07-30T20:11:21.650Z,27.31
2018-07-30T20:12:24.234Z,27.30
2018-07-30T20:13:27.774Z,27.31
2018-07-30T20:14:31.800Z,27.31
2018-07-30T20:15:34.671Z,27.31
2018-07-30T20:16:37.211Z,27.33
2018-07-30T20:17:40.746Z,27.32
2018-07-30T20:18:43.704Z,26.99
2018-07-30T20:19:47.727Z,27.32
2018-07-30T20:20:52.713Z,27.29
2018-07-30T20:21:55.265Z,27.30
2018-07-30T20:22:59.235Z,27.33
2018-07-30T20:24:01.808Z,27.33
2018-07-30T20:25:04.355Z,27.26
2018-07-30T20:26:09.413Z,27.21
2018-07-30T20:27:12.000Z,27.18
2018-07-30T20:28:15.227Z,27.18
2018-07-30T20:29:18.971Z,27.23
2018-07-30T20:30:22.462Z,27.25
2018-07-30T20:31:25.019Z,27.26
2018-07-30T20:32:28.514Z,27.23
2018-07-30T20:33:32.749Z,27.20
2018-07-30T20:34:35.309Z,27.16
2018-07-30T20:35:37.887Z,27.16
2018-07-30T20:36:40.451Z,27.15
2018-07-30T20:37:43.044Z,27.21
2018-07-30T20:38:46.933Z,27.22
2018-07-30T20:39:49.508Z,27.19
2018-07-30T20:40:53.541Z,27.22
2018-07-30T20:41:57.080Z,27.21
2018-07-30T20:43:01.517Z,27.21
2018-07-30T20:44:04.980Z,27.25
2018-07-30T20:45:08.114Z,26.52
2018-07-30T20:46:10.680Z,27.30
2018-07-30T20:47:14.215Z,27.30
2018-07-30T20:48:16.810Z,27.32
2018-07-30T20:49:19.416Z,27.32
2018-07-30T20:50:23.590Z,27.32
2018-07-30T20:51:26.148Z,27.35
2018-07-30T20:52:28.839Z,26.53
2018-07-30T20:53:32.023Z,27.33
2018-07-30T20:54:35.138Z,27.31
2018-07-30T20:55:38.600Z,27.28
2018-07-30T20:56:42.403Z,27.20
2018-07-30T20:57:44.978Z,27.17
2018-07-30T20:58:48.449Z,27.12
2018-07-30T20:59:51.551Z,27.11
2018-07-30T21:00:54.123Z,27.12
2018-07-30T21:01:57.620Z,27.20
2018-07-30T21:03:02.226Z,27.25
2018-07-30T21:04:04.822Z,27.27
2018-07-30T21:05:07.792Z,27.28
